• Join FlightAware (Why Join?)
  • Login
  • US Flag 
11:30AM EDT


 

Airport Tracker/Info


-or-


 

Live Flight TrackerFlight Track Log ✈ N21EK ✈ 21-Apr-2013 ✈ KBCT - KSRQ

Flight Track Log - Related Links

Times and Time Zones

All times are in EDT time to prevent confusion due to time zone crossing. See the N21EK flight status page for this flight to view local times or setup timezone preferences in your user account.

Time Position Orientation Groundspeed Altitude Reporting Facility
EDT Latitude Longitude Course Direction KTS MPH feet Rate Location/Type
05:01PM 26.4606 -80.0800 340° North 150 173 6,500  Level Miami Center
05:02PM 26.5036 -80.1092 329° Northwest 167 192 8,700 1,740 Climbing Miami Center
05:03PM 26.5131 -80.1558 283° West 195 224 10,000 600 Climbing Miami Center
05:04PM 26.5239 -80.2303 279° West 226 260 10,000 1,020 Level Miami Center
05:05PM 26.5533 -80.3100 292° West 246 283 12,100 1,980 Climbing Miami Center
05:06PM 26.5753 -80.3594 296° West 225 259 14,000 1,320 Climbing Miami Center
05:07PM 26.6111 -80.4350 298° West 234 269 14,800 1,020 Climbing Miami Center
05:08PM 26.6386 -80.5008 295° West 252 290 16,100 1,200 Climbing Miami Center
05:09PM 26.6722 -80.5786 296° West 252 290 17,200 900 Climbing Miami Center
05:10PM 26.7019 -80.6422 298° West 257 296 18,000 360 Climbing Miami Center
05:11PM 26.7392 -80.7272 296° West 265 305 18,000  Level Miami Center
05:12PM 26.7747 -80.8006 299° West 288 331 18,000  Level Miami Center
05:13PM 26.8142 -80.8856 297° West 296 341 18,000  Level Miami Center
05:14PM 26.8536 -80.9778 296° West 302 348 18,000 -360 Level Miami Center
05:15PM 26.8908 -81.0628 296° West 302 348 17,300 -840 Descending Miami Center
05:16PM 26.9278 -81.1481 296° West 302 348 16,400 -900 Descending Miami Center
05:17PM 26.9631 -81.2264 297° West 302 348 15,500 -1,080 Descending Miami Center
05:18PM 26.9961 -81.3044 295° West 296 341 14,300 -780 Descending Miami Center
05:19PM 27.0314 -81.3850 296° West 291 335 14,000 -660 Descending Miami Center
05:20PM 27.0661 -81.4703 295° West 291 335 13,000 -1,260 Descending Miami Center
05:21PM 27.1053 -81.5558 297° West 298 343 11,500 -1,500 Descending Miami Center
05:22PM 27.1439 -81.6508 295° West 304 350 10,000 -1,200 Descending Miami Center
05:23PM 27.1786 -81.7339 295° West 304 350 9,100 -1,380 Descending Miami Center
05:24PM 27.1906 -81.8136 280° West 292 336 7,300 -1,440 Descending Miami Center
05:25PM 27.1986 -81.8864 277° West 260 299 6,300 -900 Descending Miami Center
05:26PM 27.2083 -81.9661 278° West 255 293 5,500 -660 Descending Miami Center
05:27PM 27.2325 -82.0489 288° West 262 302 5,000 -300 Descending Miami Center
05:28PM 27.2608 -82.1250 293° West 267 307 5,000  Level Miami Center
05:29PM 27.2708 -82.1978 279° West 255 293 5,000 -600 Level Miami Center
05:30PM 27.2683 -82.2678 268° West 234 269 3,800 -1,380 Descending Miami Center
05:31PM 27.2614 -82.3375 264° West 229 264 2,300 -1,020 Descending Miami Center
05:32PM 27.2717 -82.3964 281° West 216 249 1,800 -300 Descending Miami Center
05:33PM 27.2931 -82.4394 299° West 167 192 1,800 -60 Level Miami Center
05:34PM 27.3333 -82.4833 316° Northwest 132 152 1,700 -300 Descending Tampa TRACON
05:35PM 27.3500 -82.5000 318° Northwest 120 138 1,200 -600 Descending Tampa TRACON
05:36PM 27.3667 -82.5167 318° Northwest 112 129 600 -600 Descending Tampa TRACON
05:38PM 27.3833 -82.5500 281° West  Level FlightAware Approximate
05:45PM 27.3954 -82.5544 281° West  Level Estimated
05:46PM 27.3954 -82.5544 281° West  Level Estimated
05:47PM 27.3954 -82.5544 281° West  Level Estimated